Time;durP1;ratioP1;P1;durP2;ratioP2;P2;SDS_P1;SDS_P2;PMS_P1;PMS_P2;Temp;Humidity;BMP_temperature;BMP_pressure;BME280_temperature;BME280_humidity;BME280_pressure;Samples;Min_cycle;Max_cycle;Signal;HPM_P1;HPM_P2
2023/03/31 00:01:05;;;;;;;14.82;3.28;;;;;;;;;;5055910;28;20044;-66
2023/03/31 00:03:32;;;;;;;14.38;2.67;;;;;;;;;;5073697;28;20090;-66
2023/03/31 00:05:59;;;;;;;13.00;3.55;;;;;;;;;;5073597;28;20047;-66
2023/03/31 00:08:28;;;;;;;18.13;2.80;;;;;;;;;;5073824;28;20044;-66
2023/03/31 00:11:01;;;;;;;24.00;4.55;;;;;;;;;;5073556;28;20075;-66
2023/03/31 00:13:28;;;;;;;26.30;5.07;;;;;;;;;;5073383;28;20040;-66
2023/03/31 00:15:55;;;;;;;29.70;4.82;;;;;;;;;;5073210;28;20048;-66
2023/03/31 00:18:24;;;;;;;27.50;4.68;;;;;;;;;;5073304;28;20045;-66
2023/03/31 00:20:51;;;;;;;38.75;5.40;;;;;;;;;;5073500;28;20055;-66
2023/03/31 00:23:26;;;;;;;41.70;6.05;;;;;;;;;;5073143;28;20127;-66
2023/03/31 00:25:54;;;;;;;41.95;5.53;;;;;;;;;;5073074;28;20052;-66
2023/03/31 00:28:21;;;;;;;29.88;5.20;;;;;;;;;;5073171;28;20041;-66
2023/03/31 00:30:48;;;;;;;32.88;5.43;;;;;;;;;;5073135;28;20044;-66
2023/03/31 00:33:14;;;;;;;39.23;6.30;;;;;;;;;;5055482;28;20047;-66
2023/03/31 00:35:42;;;;;;;37.00;6.43;;;;;;;;;;5055289;28;20356;-67
2023/03/31 00:38:12;;;;;;;;;;;;;;;;;;5073333;28;20102;-67
2023/03/31 00:40:43;;;;;;;50.70;7.28;;;;;;;;;;5088574;28;19921;-68
2023/03/31 00:43:18;;;;;;;49.58;6.70;;;;;;;;;;5072963;28;20048;-68
2023/03/31 00:45:45;;;;;;;50.70;7.60;;;;;;;;;;5072968;28;20047;-68
2023/03/31 00:48:15;;;;;;;55.83;7.95;;;;;;;;;;5072638;28;20053;-68
2023/03/31 00:50:52;;;;;;;62.15;8.23;;;;;;;;;;5072543;28;20583;-68
2023/03/31 00:53:19;;;;;;;;;;;;;;;;;;5073001;28;20048;-67
2023/03/31 00:55:49;;;;;;;55.95;8.55;;;;;;;;;;5072403;28;19930;-67
2023/03/31 00:58:19;;;;;;;53.15;8.48;;;;;;;;;;5072474;28;20139;-67
2023/03/31 01:00:46;;;;;;;39.83;6.15;;;;;;;;;;5072509;28;20052;-67
2023/03/31 01:03:14;;;;;;;41.00;5.63;;;;;;;;;;5072618;28;20094;-67
2023/03/31 01:05:41;;;;;;;;;;;;;;;;;;5072986;28;20407;-67
2023/03/31 01:08:08;;;;;;;44.55;6.05;;;;;;;;;;5072586;28;19927;-67
2023/03/31 01:10:40;;;;;;;45.95;7.07;;;;;;;;;;5072345;28;20048;-66
2023/03/31 01:13:08;;;;;;;43.20;6.97;;;;;;;;;;5072456;28;20059;-67
2023/03/31 01:15:35;;;;;;;47.08;7.05;;;;;;;;;;5072668;28;20066;-66
2023/03/31 01:18:02;;;;;;;45.58;7.78;;;;;;;;;;5072062;28;20051;-66
2023/03/31 01:20:35;;;;;;;52.15;8.00;;;;;;;;;;5072215;28;20045;-66
2023/03/31 01:23:01;;;;;;;49.92;7.38;;;;;;;;;;5072026;28;20044;-66
2023/03/31 01:25:28;;;;;;;54.15;7.45;;;;;;;;;;5054156;28;20072;-66
2023/03/31 01:27:54;;;;;;;53.22;6.88;;;;;;;;;;5071846;28;20048;-66
2023/03/31 01:30:33;;;;;;;60.67;7.75;;;;;;;;;;5054043;28;20632;-66
2023/03/31 01:33:14;;;;;;;53.08;7.53;;;;;;;;;;5071896;28;20045;-66
2023/03/31 01:35:52;;;;;;;51.05;7.55;;;;;;;;;;5071796;28;20086;-67
2023/03/31 01:38:38;;;;;;;47.78;7.20;;;;;;;;;;5072124;28;20052;-67
2023/03/31 01:41:10;;;;;;;50.25;7.63;;;;;;;;;;5047865;28;20059;-67
2023/03/31 01:43:37;;;;;;;45.33;7.03;;;;;;;;;;5054268;28;20114;-67
2023/03/31 01:46:09;;;;;;;46.47;8.35;;;;;;;;;;5071918;28;20056;-67
2023/03/31 01:48:44;;;;;;;53.83;7.95;;;;;;;;;;5071353;28;20052;-67
2023/03/31 01:51:21;;;;;;;51.80;7.45;;;;;;;;;;5071883;28;20053;-67
2023/03/31 01:53:50;;;;;;;44.05;7.32;;;;;;;;;;5071740;28;20056;-66
2023/03/31 01:56:20;;;;;;;43.92;6.05;;;;;;;;;;5071544;28;20464;-66
2023/03/31 01:58:50;;;;;;;44.97;5.78;;;;;;;;;;5071785;28;20058;-67
2023/03/31 02:01:24;;;;;;;45.40;6.35;;;;;;;;;;5071570;28;20546;-67
2023/03/31 02:03:54;;;;;;;48.03;5.47;;;;;;;;;;5053645;28;20048;-67
2023/03/31 02:06:23;;;;;;;45.08;6.30;;;;;;;;;;5065100;28;20075;-66
2023/03/31 02:08:59;;;;;;;48.90;5.43;;;;;;;;;;5071608;28;20131;-67
2023/03/31 02:11:27;;;;;;;39.50;4.53;;;;;;;;;;5071631;28;20055;-68
2023/03/31 02:13:54;;;;;;;44.60;5.35;;;;;;;;;;5071657;28;20053;-68
2023/03/31 02:16:23;;;;;;;30.15;4.25;;;;;;;;;;5071641;28;20048;-68
2023/03/31 02:18:52;;;;;;;50.83;5.22;;;;;;;;;;5071282;28;20127;-69
2023/03/31 02:21:21;;;;;;;46.33;5.63;;;;;;;;;;5071506;28;20151;-69
2023/03/31 02:23:49;;;;;;;27.65;3.60;;;;;;;;;;5071216;28;20045;-69
2023/03/31 02:26:19;;;;;;;22.73;3.17;;;;;;;;;;5071499;28;20055;-69
2023/03/31 02:28:45;;;;;;;21.67;3.13;;;;;;;;;;5071266;28;20048;-68
2023/03/31 02:31:12;;;;;;;24.42;3.00;;;;;;;;;;5071529;28;20048;-68
2023/03/31 02:33:38;;;;;;;22.17;2.90;;;;;;;;;;5071295;28;20492;-68
2023/03/31 02:36:05;;;;;;;29.00;3.80;;;;;;;;;;5071317;28;20052;-68
2023/03/31 02:38:33;;;;;;;41.63;4.47;;;;;;;;;;5071136;28;20044;-68
2023/03/31 02:40:59;;;;;;;;;;;;;;;;;;5071703;28;20052;-68
2023/03/31 02:43:26;;;;;;;20.40;2.50;;;;;;;;;;5071071;28;19925;-68
2023/03/31 02:45:52;;;;;;;23.85;3.47;;;;;;;;;;5071377;28;20047;-68
2023/03/31 02:48:22;;;;;;;25.70;3.75;;;;;;;;;;5071279;28;20132;-69
2023/03/31 02:50:48;;;;;;;27.85;3.30;;;;;;;;;;5071307;28;20070;-70
2023/03/31 02:53:14;;;;;;;26.65;3.63;;;;;;;;;;5071093;28;20052;-69
2023/03/31 02:55:59;;;;;;;29.05;4.00;;;;;;;;;;5070972;28;20062;-69
2023/03/31 02:58:30;;;;;;;28.20;4.10;;;;;;;;;;5070950;28;20156;-69
2023/03/31 03:01:15;;;;;;;30.80;4.72;;;;;;;;;;5072790;28;20552;-69
2023/03/31 03:04:01;;;;;;;33.95;4.47;;;;;;;;;;5074547;28;20053;-69
2023/03/31 03:06:36;;;;;;;32.53;5.13;;;;;;;;;;5074796;28;20048;-69
2023/03/31 03:09:06;;;;;;;25.75;4.78;;;;;;;;;;5074872;28;20048;-69
2023/03/31 03:11:41;;;;;;;37.47;5.38;;;;;;;;;;5074509;28;20055;-68
2023/03/31 03:14:30;;;;;;;33.90;4.85;;;;;;;;;;5074621;28;20091;-68
2023/03/31 03:17:00;;;;;;;34.97;5.10;;;;;;;;;;5074912;28;20053;-68
2023/03/31 03:19:26;;;;;;;32.20;5.25;;;;;;;;;;5074474;28;20048;-68
2023/03/31 03:21:53;;;;;;;43.38;5.72;;;;;;;;;;5074262;28;20508;-67
2023/03/31 03:24:21;;;;;;;36.17;4.85;;;;;;;;;;5074201;28;20040;-67
2023/03/31 03:26:48;;;;;;;29.42;5.18;;;;;;;;;;5074625;28;20512;-67
2023/03/31 03:29:14;;;;;;;37.90;5.90;;;;;;;;;;5074113;28;20048;-67
2023/03/31 03:31:41;;;;;;;40.67;5.53;;;;;;;;;;5074164;28;20132;-67
2023/03/31 03:34:10;;;;;;;51.88;6.45;;;;;;;;;;5074295;28;20044;-67
2023/03/31 03:36:37;;;;;;;51.17;6.70;;;;;;;;;;5074353;28;20041;-67
2023/03/31 03:39:04;;;;;;;49.63;7.22;;;;;;;;;;5074310;28;20468;-67
2023/03/31 03:41:32;;;;;;;49.17;5.95;;;;;;;;;;5073874;28;20087;-67
2023/03/31 03:43:59;;;;;;;43.38;6.70;;;;;;;;;;5074212;28;20054;-67
2023/03/31 03:46:25;;;;;;;49.23;6.93;;;;;;;;;;5074255;28;20047;-66
2023/03/31 03:48:52;;;;;;;49.40;6.68;;;;;;;;;;5074029;28;20040;-67
2023/03/31 03:51:18;;;;;;;47.40;6.80;;;;;;;;;;5074102;28;20203;-67
2023/03/31 03:53:44;;;;;;;51.38;6.32;;;;;;;;;;5073847;28;20055;-67
2023/03/31 03:56:11;;;;;;;41.58;6.10;;;;;;;;;;5073462;28;20068;-67
2023/03/31 03:58:37;;;;;;;43.63;5.88;;;;;;;;;;5074026;28;20157;-67
2023/03/31 04:01:04;;;;;;;46.10;5.97;;;;;;;;;;5073871;28;20049;-66
2023/03/31 04:03:30;;;;;;;35.00;5.53;;;;;;;;;;5073663;28;20135;-66
2023/03/31 04:05:57;;;;;;;37.63;6.10;;;;;;;;;;5073814;28;20140;-66
2023/03/31 04:08:23;;;;;;;45.22;6.15;;;;;;;;;;5073727;28;20052;-66
2023/03/31 04:10:49;;;;;;;45.08;5.93;;;;;;;;;;5073657;28;20044;-66
2023/03/31 04:13:16;;;;;;;36.08;4.63;;;;;;;;;;5072731;28;20518;-67
2023/03/31 04:15:43;;;;;;;39.13;5.22;;;;;;;;;;5073302;28;20136;-67
2023/03/31 04:18:09;;;;;;;32.75;4.70;;;;;;;;;;5073349;28;20550;-67
2023/03/31 04:20:37;;;;;;;34.40;5.10;;;;;;;;;;5072381;28;20090;-67
2023/03/31 04:23:08;;;;;;;45.65;5.82;;;;;;;;;;5060303;28;20051;-67
2023/03/31 04:25:37;;;;;;;31.95;3.92;;;;;;;;;;5055421;28;20529;-66
2023/03/31 04:28:05;;;;;;;32.17;4.50;;;;;;;;;;5073274;28;20102;-66
2023/03/31 04:30:32;;;;;;;36.03;4.43;;;;;;;;;;5073390;28;20044;-66
2023/03/31 04:32:59;;;;;;;22.27;4.03;;;;;;;;;;5073057;28;20131;-66
2023/03/31 04:35:37;;;;;;;29.55;4.03;;;;;;;;;;5073039;28;20048;-66
2023/03/31 04:38:04;;;;;;;23.95;3.45;;;;;;;;;;5055066;28;20466;-66
2023/03/31 04:40:30;;;;;;;24.65;3.67;;;;;;;;;;5072989;28;20503;-67
2023/03/31 04:42:56;;;;;;;26.42;3.35;;;;;;;;;;5072688;28;20499;-67
2023/03/31 04:45:23;;;;;;;25.27;3.05;;;;;;;;;;5073080;28;20128;-67
2023/03/31 04:47:49;;;;;;;23.05;3.35;;;;;;;;;;5072848;28;20117;-67
2023/03/31 04:50:16;;;;;;;22.48;3.10;;;;;;;;;;5072889;28;20056;-67
2023/03/31 04:52:42;;;;;;;24.58;3.15;;;;;;;;;;5072854;28;20070;-66
2023/03/31 04:55:09;;;;;;;22.48;3.35;;;;;;;;;;5072329;28;20562;-67
2023/03/31 04:57:36;;;;;;;17.03;3.00;;;;;;;;;;5072725;28;20139;-67
2023/03/31 05:00:06;;;;;;;23.30;3.80;;;;;;;;;;5072334;28;20435;-68
2023/03/31 05:02:33;;;;;;;17.33;3.50;;;;;;;;;;5072486;28;20131;-67
2023/03/31 05:04:59;;;;;;;18.25;2.53;;;;;;;;;;5072205;28;20405;-67
2023/03/31 05:07:25;;;;;;;20.17;2.78;;;;;;;;;;5072283;28;20514;-68
2023/03/31 05:09:52;;;;;;;19.13;3.35;;;;;;;;;;5072320;28;20056;-68
2023/03/31 05:12:18;;;;;;;24.58;3.42;;;;;;;;;;5072536;28;20053;-69
2023/03/31 05:14:45;;;;;;;23.10;2.88;;;;;;;;;;5072132;28;20049;-69
2023/03/31 05:17:11;;;;;;;16.92;2.20;;;;;;;;;;5054595;28;20058;-70
2023/03/31 05:19:37;;;;;;;12.50;1.95;;;;;;;;;;5072021;28;20427;-69
2023/03/31 05:22:04;;;;;;;14.48;1.83;;;;;;;;;;5072359;28;20135;-69
2023/03/31 05:24:30;;;;;;;15.85;1.70;;;;;;;;;;5071360;28;20071;-70
2023/03/31 05:26:57;;;;;;;15.52;1.50;;;;;;;;;;5054136;28;20439;-71
2023/03/31 05:29:23;;;;;;;14.18;1.45;;;;;;;;;;5054390;28;20054;-71
2023/03/31 05:31:52;;;;;;;13.32;1.58;;;;;;;;;;5072203;28;20467;-71
2023/03/31 05:34:18;;;;;;;11.32;1.40;;;;;;;;;;5071798;28;20515;-71
2023/03/31 05:36:46;;;;;;;14.38;1.80;;;;;;;;;;5072037;28;20048;-69
2023/03/31 05:39:13;;;;;;;14.57;2.20;;;;;;;;;;5054362;28;20053;-69
2023/03/31 05:41:39;;;;;;;18.50;2.33;;;;;;;;;;5060360;28;20063;-69
2023/03/31 05:44:06;;;;;;;40.45;3.67;;;;;;;;;;5071770;28;20041;-69
2023/03/31 05:46:32;;;;;;;15.85;2.83;;;;;;;;;;5071877;28;20045;-70
2023/03/31 05:48:59;;;;;;;16.45;2.53;;;;;;;;;;5071674;28;20041;-69
2023/03/31 05:51:25;;;;;;;21.05;2.65;;;;;;;;;;5071623;28;20139;-70
2023/03/31 05:53:51;;;;;;;15.45;2.45;;;;;;;;;;5071799;28;20048;-70
2023/03/31 05:56:18;;;;;;;19.02;2.30;;;;;;;;;;5071500;28;20071;-69
2023/03/31 05:58:45;;;;;;;14.18;2.35;;;;;;;;;;5071538;28;20048;-69
2023/03/31 06:01:18;;;;;;;10.93;1.55;;;;;;;;;;5071787;28;20169;-69
2023/03/31 06:03:45;;;;;;;20.45;2.58;;;;;;;;;;5071425;28;20136;-70
2023/03/31 06:06:12;;;;;;;19.97;2.13;;;;;;;;;;5071697;28;20121;-70
2023/03/31 06:08:38;;;;;;;12.77;1.52;;;;;;;;;;5071527;28;20335;-70
2023/03/31 06:11:06;;;;;;;17.65;1.70;;;;;;;;;;5071404;28;20525;-69
2023/03/31 06:13:33;;;;;;;6.93;1.33;;;;;;;;;;5071418;28;20139;-69
2023/03/31 06:16:00;;;;;;;9.00;1.15;;;;;;;;;;5071467;28;20050;-67
2023/03/31 06:18:27;;;;;;;8.35;1.50;;;;;;;;;;5071694;28;20049;-68
2023/03/31 06:20:54;;;;;;;11.48;1.85;;;;;;;;;;5070973;28;20051;-68
2023/03/31 06:23:21;;;;;;;15.40;1.77;;;;;;;;;;5070895;28;20044;-70
2023/03/31 06:25:47;;;;;;;17.27;2.10;;;;;;;;;;5065345;28;20431;-69
2023/03/31 06:28:17;;;;;;;14.63;2.05;;;;;;;;;;5070854;28;20109;-69
2023/03/31 06:30:44;;;;;;;16.40;1.70;;;;;;;;;;5071441;28;20132;-69
2023/03/31 06:33:10;;;;;;;18.10;1.70;;;;;;;;;;5070793;28;20049;-70
2023/03/31 06:35:37;;;;;;;10.50;1.88;;;;;;;;;;5072637;28;20519;-69
2023/03/31 06:38:04;;;;;;;13.90;1.80;;;;;;;;;;5074770;28;20566;-69
2023/03/31 06:40:30;;;;;;;11.18;1.80;;;;;;;;;;5074895;28;20041;-69
2023/03/31 06:42:57;;;;;;;23.27;2.92;;;;;;;;;;5074970;28;20071;-69
2023/03/31 06:45:23;;;;;;;17.02;1.98;;;;;;;;;;5075072;28;20063;-69
2023/03/31 06:47:50;;;;;;;12.35;1.65;;;;;;;;;;5074890;28;20484;-69
2023/03/31 06:50:16;;;;;;;25.05;3.45;;;;;;;;;;5063927;28;20045;-69
2023/03/31 06:52:43;;;;;;;13.13;1.70;;;;;;;;;;5071495;28;20881;-67
2023/03/31 06:55:11;;;;;;;12.43;1.55;;;;;;;;;;5073279;28;20464;-68
2023/03/31 06:57:38;;;;;;;9.13;1.40;;;;;;;;;;5069830;28;20546;-77
2023/03/31 07:00:06;;;;;;;15.35;1.73;;;;;;;;;;5079856;28;20048;-77
2023/03/31 07:02:32;;;;;;;9.38;1.38;;;;;;;;;;5073970;28;20040;-75
2023/03/31 07:04:59;;;;;;;12.25;1.50;;;;;;;;;;5074370;28;20126;-75
2023/03/31 07:07:26;;;;;;;11.32;1.40;;;;;;;;;;5056813;28;20052;-76
2023/03/31 07:09:52;;;;;;;8.23;1.13;;;;;;;;;;5074024;28;20055;-76
2023/03/31 07:12:21;;;;;;;10.00;1.05;;;;;;;;;;5074508;28;20048;-78
2023/03/31 07:14:48;;;;;;;5.53;1.00;;;;;;;;;;5074602;28;20058;-81
2023/03/31 07:17:14;;;;;;;8.73;0.80;;;;;;;;;;5074358;28;20057;-77
2023/03/31 07:19:41;;;;;;;8.50;1.55;;;;;;;;;;5073894;28;20131;-78
2023/03/31 07:22:07;;;;;;;12.13;2.05;;;;;;;;;;5074359;28;20045;-76
2023/03/31 07:24:34;;;;;;;16.15;2.05;;;;;;;;;;5074396;28;20049;-76
2023/03/31 07:27:00;;;;;;;14.55;3.08;;;;;;;;;;5056690;28;20127;-76
2023/03/31 07:29:27;;;;;;;20.63;3.25;;;;;;;;;;5074476;28;20055;-74
2023/03/31 07:31:53;;;;;;;23.88;3.95;;;;;;;;;;5055959;28;20044;-75
2023/03/31 07:34:20;;;;;;;23.10;4.47;;;;;;;;;;5074096;28;20114;-73
2023/03/31 07:36:46;;;;;;;20.20;4.00;;;;;;;;;;5073941;28;20056;-74
2023/03/31 07:39:13;;;;;;;19.75;4.00;;;;;;;;;;5073470;28;20079;-77
2023/03/31 07:41:39;;;;;;;21.65;3.47;;;;;;;;;;5078936;28;20045;-75
2023/03/31 07:44:05;;;;;;;20.25;3.42;;;;;;;;;;5071686;28;20415;-76
2023/03/31 07:46:32;;;;;;;19.77;3.25;;;;;;;;;;5073324;28;20047;-75
2023/03/31 07:49:01;;;;;;;16.25;2.90;;;;;;;;;;5073350;28;20059;-76
2023/03/31 07:51:28;;;;;;;16.80;3.22;;;;;;;;;;5074059;28;20048;-75
2023/03/31 07:53:54;;;;;;;15.80;3.00;;;;;;;;;;5073824;28;20063;-75
2023/03/31 07:56:23;;;;;;;17.08;3.20;;;;;;;;;;5073676;28;20083;-75
2023/03/31 07:58:51;;;;;;;18.05;3.08;;;;;;;;;;5073777;28;20067;-76
2023/03/31 08:01:20;;;;;;;16.20;2.55;;;;;;;;;;5073415;28;20423;-77
2023/03/31 08:03:47;;;;;;;13.93;3.22;;;;;;;;;;5073883;28;20472;-77
2023/03/31 08:06:18;;;;;;;18.98;2.90;;;;;;;;;;5073731;28;20040;-75
2023/03/31 08:08:45;;;;;;;13.93;2.33;;;;;;;;;;5073566;28;20055;-75
2023/03/31 08:11:11;;;;;;;12.07;2.25;;;;;;;;;;5073696;28;20420;-76
2023/03/31 08:13:37;;;;;;;9.25;2.10;;;;;;;;;;5073736;28;20048;-75
2023/03/31 08:16:04;;;;;;;11.68;2.13;;;;;;;;;;5073232;28;20583;-74
2023/03/31 08:18:31;;;;;;;12.57;2.73;;;;;;;;;;5073595;28;20155;-75
2023/03/31 08:20:57;;;;;;;12.57;1.55;;;;;;;;;;5055575;28;20408;-74
2023/03/31 08:23:23;;;;;;;8.27;1.90;;;;;;;;;;5073162;28;20515;-75
2023/03/31 08:25:50;;;;;;;8.90;1.55;;;;;;;;;;5054769;28;20048;-78
2023/03/31 08:28:17;;;;;;;7.20;1.40;;;;;;;;;;5073158;28;20515;-76
2023/03/31 08:30:43;;;;;;;6.93;1.20;;;;;;;;;;5073005;28;20110;-74
2023/03/31 08:33:11;;;;;;;7.20;1.70;;;;;;;;;;5073335;28;20102;-75
2023/03/31 08:35:37;;;;;;;8.48;1.88;;;;;;;;;;5073174;28;20087;-74
2023/03/31 08:38:04;;;;;;;10.65;5.05;;;;;;;;;;5072958;28;20053;-74
2023/03/31 08:40:31;;;;;;;18.00;11.45;;;;;;;;;;5072945;28;20048;-74
2023/03/31 08:43:20;;;;;;;12.45;7.35;;;;;;;;;;5072836;28;20492;-74
2023/03/31 08:45:47;;;;;;;12.38;6.45;;;;;;;;;;5072805;28;20472;-74
2023/03/31 08:48:24;;;;;;;19.63;9.90;;;;;;;;;;5072721;28;20048;-74
2023/03/31 08:50:54;;;;;;;20.65;10.60;;;;;;;;;;5055134;28;20080;-74
2023/03/31 08:53:41;;;;;;;30.67;16.52;;;;;;;;;;5072634;28;20575;-74
2023/03/31 08:56:13;;;;;;;28.33;15.35;;;;;;;;;;5072334;28;20139;-74
2023/03/31 08:58:42;;;;;;;31.35;18.27;;;;;;;;;;5072417;28;20492;-74
2023/03/31 09:01:08;;;;;;;36.00;20.77;;;;;;;;;;5072352;28;20071;-74
2023/03/31 09:03:54;;;;;;;21.23;11.50;;;;;;;;;;5072779;28;20049;-74
2023/03/31 09:06:28;;;;;;;14.15;9.55;;;;;;;;;;5072364;28;20492;-74
2023/03/31 09:08:58;;;;;;;9.73;6.55;;;;;;;;;;5072055;28;20044;-74
2023/03/31 09:11:25;;;;;;;7.95;4.28;;;;;;;;;;5072312;28;20477;-74
2023/03/31 09:14:10;;;;;;;5.47;3.50;;;;;;;;;;5072320;28;20083;-75
2023/03/31 09:16:40;;;;;;;6.50;2.83;;;;;;;;;;5072607;28;20086;-74
2023/03/31 09:19:17;;;;;;;4.75;2.00;;;;;;;;;;5071275;28;20504;-74
2023/03/31 09:21:45;;;;;;;4.20;1.50;;;;;;;;;;5072135;28;20123;-74
2023/03/31 09:24:19;;;;;;;7.68;3.08;;;;;;;;;;5072016;28;20533;-74
2023/03/31 09:26:48;;;;;;;6.35;3.78;;;;;;;;;;5072074;28;20477;-74
2023/03/31 09:29:18;;;;;;;8.50;2.15;;;;;;;;;;5071956;28;20512;-74
2023/03/31 09:31:45;;;;;;;9.45;2.47;;;;;;;;;;5054148;28;20052;-74
2023/03/31 09:34:14;;;;;;;6.03;1.88;;;;;;;;;;5072247;28;20101;-74
2023/03/31 09:36:41;;;;;;;5.32;2.10;;;;;;;;;;5072058;28;20106;-75
2023/03/31 09:39:12;;;;;;;5.32;1.73;;;;;;;;;;5072025;28;20048;-75
2023/03/31 09:41:41;;;;;;;5.72;1.98;;;;;;;;;;5071754;28;20080;-75
2023/03/31 09:44:20;;;;;;;5.32;1.60;;;;;;;;;;5071803;28;20044;-75
2023/03/31 09:46:46;;;;;;;7.07;2.70;;;;;;;;;;5071969;28;20129;-75
2023/03/31 09:49:14;;;;;;;4.35;1.80;;;;;;;;;;5071875;28;20052;-74
2023/03/31 09:51:42;;;;;;;4.55;1.08;;;;;;;;;;5071991;28;20479;-74
2023/03/31 09:54:09;;;;;;;4.43;0.82;;;;;;;;;;5070874;28;20056;-74
2023/03/31 09:56:41;;;;;;;4.28;0.90;;;;;;;;;;5071330;28;20569;-74
2023/03/31 09:59:31;;;;;;;3.42;1.02;;;;;;;;;;5054109;28;20056;-73
2023/03/31 10:02:01;;;;;;;3.08;0.63;;;;;;;;;;5061026;28;20055;-74
2023/03/31 10:04:29;;;;;;;2.50;0.50;;;;;;;;;;5072066;28;20097;-75
2023/03/31 10:06:56;;;;;;;2.38;0.73;;;;;;;;;;5071688;28;20484;-74
2023/03/31 10:09:27;;;;;;;6.15;2.60;;;;;;;;;;5071643;28;20045;-75
2023/03/31 10:11:58;;;;;;;4.22;1.30;;;;;;;;;;5071320;28;20135;-74
2023/03/31 10:14:27;;;;;;;1.65;1.02;;;;;;;;;;5071620;28;20047;-74
2023/03/31 10:16:54;;;;;;;2.30;1.00;;;;;;;;;;5071420;28;20507;-74
2023/03/31 10:19:28;;;;;;;1.50;0.60;;;;;;;;;;5071683;28;20157;-75
2023/03/31 10:21:56;;;;;;;4.20;0.88;;;;;;;;;;5071705;28;20106;-75
2023/03/31 10:24:22;;;;;;;3.17;1.08;;;;;;;;;;5071823;28;20382;-75
2023/03/31 10:26:51;;;;;;;3.85;0.90;;;;;;;;;;5071304;28;20046;-75
2023/03/31 10:29:29;;;;;;;4.72;1.60;;;;;;;;;;5071351;28;20385;-74
2023/03/31 10:32:01;;;;;;;4.22;0.98;;;;;;;;;;5053410;28;20051;-75
2023/03/31 10:34:28;;;;;;;2.45;0.93;;;;;;;;;;5071247;28;20063;-75
2023/03/31 10:36:55;;;;;;;3.88;0.98;;;;;;;;;;5071424;28;20048;-75
2023/03/31 10:39:27;;;;;;;4.65;1.25;;;;;;;;;;5071648;28;20064;-75
2023/03/31 10:41:53;;;;;;;4.20;0.98;;;;;;;;;;5071478;28;20384;-74
2023/03/31 10:44:29;;;;;;;3.70;1.65;;;;;;;;;;5071206;28;20051;-74
2023/03/31 10:47:02;;;;;;;3.35;1.23;;;;;;;;;;5071153;28;20151;-74
2023/03/31 10:49:28;;;;;;;3.05;1.75;;;;;;;;;;5071407;28;20518;-74
2023/03/31 10:52:00;;;;;;;4.03;1.15;;;;;;;;;;5071093;28;20498;-74
2023/03/31 10:54:26;;;;;;;3.75;1.45;;;;;;;;;;5071222;28;20061;-73
2023/03/31 10:57:02;;;;;;;4.65;0.88;;;;;;;;;;5070792;28;20084;-73
2023/03/31 10:59:58;;;;;;;6.20;1.15;;;;;;;;;;5070998;28;20059;-75
2023/03/31 11:02:45;;;;;;;2.78;1.00;;;;;;;;;;5048553;28;20411;-74
2023/03/31 11:05:27;;;;;;;6.63;1.60;;;;;;;;;;5071141;28;20462;-75
2023/03/31 11:07:53;;;;;;;5.35;1.13;;;;;;;;;;5053367;28;20056;-75
2023/03/31 11:10:32;;;;;;;5.65;1.50;;;;;;;;;;5071142;28;20044;-76
2023/03/31 11:13:15;;;;;;;4.18;0.93;;;;;;;;;;5070923;28;20484;-76
2023/03/31 11:15:59;;;;;;;3.40;0.95;;;;;;;;;;5053281;28;20052;-73
2023/03/31 11:18:43;;;;;;;4.53;1.20;;;;;;;;;;5053433;28;20468;-70
2023/03/31 11:21:19;;;;;;;4.45;1.60;;;;;;;;;;5070789;28;20045;-75
2023/03/31 11:24:06;;;;;;;5.88;2.05;;;;;;;;;;5073870;28;20052;-75
2023/03/31 11:26:56;;;;;;;6.13;3.03;;;;;;;;;;5074222;28;20460;-75
2023/03/31 11:29:42;;;;;;;4.13;1.40;;;;;;;;;;5037042;28;20063;-74
2023/03/31 11:32:27;;;;;;;7.00;1.57;;;;;;;;;;5074200;28;20135;-75
2023/03/31 11:34:56;;;;;;;;;;;;;;;;;;5072662;28;20083;-73
2023/03/31 11:37:30;;;;;;;9.25;1.80;;;;;;;;;;5062716;28;19931;-73
2023/03/31 11:39:57;;;;;;;10.45;2.45;;;;;;;;;;5073647;28;20470;-72
2023/03/31 11:42:32;;;;;;;6.38;1.80;;;;;;;;;;5061918;28;20127;-72
2023/03/31 11:45:12;;;;;;;12.45;2.63;;;;;;;;;;5068145;28;20148;-72
2023/03/31 11:47:41;;;;;;;9.57;2.13;;;;;;;;;;5073402;28;20052;-72
2023/03/31 11:50:11;;;;;;;8.35;2.17;;;;;;;;;;5073272;28;20053;-72
2023/03/31 11:52:39;;;;;;;8.32;2.72;;;;;;;;;;5073582;28;20059;-71
2023/03/31 11:55:16;;;;;;;10.02;2.05;;;;;;;;;;5070832;28;20080;-72
2023/03/31 11:57:43;;;;;;;7.05;1.70;;;;;;;;;;5073409;28;20140;-73
2023/03/31 12:00:15;;;;;;;6.68;1.85;;;;;;;;;;5072610;28;20511;-74
2023/03/31 12:02:45;;;;;;;8.15;2.10;;;;;;;;;;5055190;28;20116;-72
2023/03/31 12:05:12;;;;;;;8.82;1.88;;;;;;;;;;5073300;28;20080;-73
2023/03/31 12:07:43;;;;;;;7.78;1.60;;;;;;;;;;5072932;28;20487;-74
2023/03/31 12:10:28;;;;;;;6.38;1.58;;;;;;;;;;5073326;28;20080;-73
2023/03/31 12:12:58;;;;;;;6.38;1.67;;;;;;;;;;5073138;28;20412;-72
2023/03/31 12:15:34;;;;;;;6.18;1.40;;;;;;;;;;5073003;28;20456;-72
2023/03/31 12:18:21;;;;;;;8.43;1.50;;;;;;;;;;5072782;28;20044;-73
2023/03/31 12:20:58;;;;;;;4.13;1.07;;;;;;;;;;5072713;28;20404;-73
2023/03/31 12:23:27;;;;;;;6.65;1.73;;;;;;;;;;5072995;28;20113;-73
2023/03/31 12:26:12;;;;;;;6.25;1.50;;;;;;;;;;5072785;28;20048;-75
2023/03/31 12:28:40;;;;;;;6.55;1.65;;;;;;;;;;5071675;28;20048;-70
2023/03/31 12:31:09;;;;;;;9.50;2.50;;;;;;;;;;5062544;28;20379;-66
2023/03/31 12:33:39;;;;;;;9.85;2.20;;;;;;;;;;5072169;28;20048;-69
2023/03/31 12:36:08;;;;;;;7.35;2.08;;;;;;;;;;5072296;28;20056;-68
2023/03/31 12:38:47;;;;;;;13.63;2.47;;;;;;;;;;5072411;28;20049;-68
2023/03/31 12:41:32;;;;;;;6.63;1.65;;;;;;;;;;5072258;28;20054;-70
2023/03/31 12:44:09;;;;;;;8.45;2.88;;;;;;;;;;5072278;28;20087;-70
2023/03/31 12:46:54;;;;;;;8.47;1.60;;;;;;;;;;5072173;28;20131;-69
2023/03/31 12:49:40;;;;;;;6.22;1.70;;;;;;;;;;5054685;28;20048;-70
2023/03/31 12:52:33;;;;;;;7.43;2.28;;;;;;;;;;5071619;28;20077;-70
2023/03/31 12:55:17;;;;;;;7.53;2.10;;;;;;;;;;5040977;28;20050;-71
2023/03/31 12:57:44;;;;;;;4.45;1.80;;;;;;;;;;5059605;28;20055;-70
2023/03/31 13:00:13;;;;;;;5.75;1.73;;;;;;;;;;5069791;28;20052;-68
2023/03/31 13:02:39;;;;;;;9.98;2.47;;;;;;;;;;5071689;28;20044;-69
2023/03/31 13:05:25;;;;;;;8.30;1.77;;;;;;;;;;5070410;28;20053;-68
2023/03/31 13:07:51;;;;;;;8.02;1.85;;;;;;;;;;5072445;28;20119;-68
2023/03/31 13:10:20;;;;;;;11.48;2.72;;;;;;;;;;5072231;28;20558;-69
2023/03/31 13:13:06;;;;;;;8.93;1.95;;;;;;;;;;5054187;28;20602;-69
2023/03/31 13:15:32;;;;;;;7.97;2.10;;;;;;;;;;5072213;28;20144;-65
2023/03/31 13:18:03;;;;;;;6.57;1.70;;;;;;;;;;5072424;28;20131;-69
2023/03/31 13:20:31;;;;;;;8.13;2.05;;;;;;;;;;5054458;28;20048;-68
2023/03/31 13:22:59;;;;;;;5.20;1.60;;;;;;;;;;5072213;28;20123;-70
2023/03/31 13:25:25;;;;;;;;;;;;;;;;;;5072514;28;20129;-69
2023/03/31 13:27:52;;;;;;;9.88;2.33;;;;;;;;;;5071813;28;20371;-69
2023/03/31 13:30:37;;;;;;;10.63;2.10;;;;;;;;;;5071984;28;20053;-72
2023/03/31 13:33:08;;;;;;;9.15;2.50;;;;;;;;;;5071847;28;20779;-69
2023/03/31 13:35:36;;;;;;;14.00;2.20;;;;;;;;;;5071608;28;20055;-69
2023/03/31 13:38:08;;;;;;;12.10;2.50;;;;;;;;;;5071516;28;20110;-68
2023/03/31 13:40:43;;;;;;;11.65;2.25;;;;;;;;;;5071739;28;20147;-68
2023/03/31 13:43:16;;;;;;;10.68;2.03;;;;;;;;;;5072018;28;20040;-68
2023/03/31 13:46:02;;;;;;;14.07;2.50;;;;;;;;;;5070933;28;20054;-69
2023/03/31 13:48:42;;;;;;;13.20;2.28;;;;;;;;;;5071908;28;20123;-69
2023/03/31 13:51:09;;;;;;;15.90;2.78;;;;;;;;;;5071921;28;20135;-69
2023/03/31 13:53:55;;;;;;;9.60;2.00;;;;;;;;;;5071769;28;20068;-70
2023/03/31 13:56:25;;;;;;;8.45;1.95;;;;;;;;;;5070293;28;20138;-70
2023/03/31 13:59:04;;;;;;;10.18;1.60;;;;;;;;;;5071882;28;20403;-70
2023/03/31 14:01:37;;;;;;;10.88;1.55;;;;;;;;;;5053600;28;20044;-70
2023/03/31 14:04:21;;;;;;;12.10;2.22;;;;;;;;;;5071622;28;20377;-69
2023/03/31 14:06:50;;;;;;;16.20;2.42;;;;;;;;;;5071151;28;20510;-69
2023/03/31 14:09:24;;;;;;;12.30;2.30;;;;;;;;;;5071094;28;20504;-68
2023/03/31 14:11:51;;;;;;;10.65;1.92;;;;;;;;;;5053083;28;20084;-69
2023/03/31 14:14:18;;;;;;;16.60;2.30;;;;;;;;;;5071057;28;20198;-69
2023/03/31 14:16:47;;;;;;;14.48;2.17;;;;;;;;;;5071341;28;20515;-69
2023/03/31 14:19:26;;;;;;;11.82;2.30;;;;;;;;;;5071586;28;20127;-75
2023/03/31 14:21:57;;;;;;;15.65;2.63;;;;;;;;;;5071574;28;20041;-72
2023/03/31 14:24:28;;;;;;;16.02;2.60;;;;;;;;;;5071652;28;20041;-70
2023/03/31 14:27:17;;;;;;;7.82;1.55;;;;;;;;;;5070438;28;20059;-71
2023/03/31 14:30:08;;;;;;;10.45;2.58;;;;;;;;;;5032673;28;20507;-73
2023/03/31 14:32:39;;;;;;;8.88;2.05;;;;;;;;;;5033321;28;20136;-71
2023/03/31 14:35:08;;;;;;;9.43;1.85;;;;;;;;;;5071281;28;20511;-71
2023/03/31 14:37:35;;;;;;;14.95;2.28;;;;;;;;;;5071257;28;20087;-71
2023/03/31 14:40:02;;;;;;;11.95;2.42;;;;;;;;;;5070933;28;20055;-71
2023/03/31 14:42:35;;;;;;;8.45;1.80;;;;;;;;;;5070893;28;20044;-71
2023/03/31 14:45:03;;;;;;;8.20;1.90;;;;;;;;;;5070762;28;20049;-71
2023/03/31 14:47:30;;;;;;;8.27;1.70;;;;;;;;;;5070980;28;20508;-71
2023/03/31 14:50:01;;;;;;;7.72;1.35;;;;;;;;;;5056640;28;20076;-71
2023/03/31 14:52:29;;;;;;;10.05;2.15;;;;;;;;;;5071082;28;20061;-71
2023/03/31 14:54:55;;;;;;;9.32;1.90;;;;;;;;;;5071334;28;20057;-70